sensor_id;sensor_type;location;lat;lon;timestamp;temperature;humidity
20041;DHT22;10181;48.072;9.884;2023-06-10T00:01:45;15.40;99.90
20041;DHT22;10181;48.072;9.884;2023-06-10T00:04:13;15.40;99.90
20041;DHT22;10181;48.072;9.884;2023-06-10T00:06:39;15.30;99.90
20041;DHT22;10181;48.072;9.884;2023-06-10T00:09:05;15.20;99.90
20041;DHT22;10181;48.072;9.884;2023-06-10T00:11:34;15.20;99.90
20041;DHT22;10181;48.072;9.884;2023-06-10T00:14:00;15.10;99.90
20041;DHT22;10181;48.072;9.884;2023-06-10T00:16:26;15.10;99.90
20041;DHT22;10181;48.072;9.884;2023-06-10T00:18:51;15.00;99.90
20041;DHT22;10181;48.072;9.884;2023-06-10T00:21:17;14.90;99.90
20041;DHT22;10181;48.072;9.884;2023-06-10T00:23:44;14.80;99.90
20041;DHT22;10181;48.072;9.884;2023-06-10T00:26:10;14.80;99.90
20041;DHT22;10181;48.072;9.884;2023-06-10T00:28:35;14.70;99.90
20041;DHT22;10181;48.072;9.884;2023-06-10T00:31:01;14.60;99.90
20041;DHT22;10181;48.072;9.884;2023-06-10T00:33:27;14.50;99.90
20041;DHT22;10181;48.072;9.884;2023-06-10T00:35:53;14.40;99.90
20041;DHT22;10181;48.072;9.884;2023-06-10T00:38:19;14.30;99.90
20041;DHT22;10181;48.072;9.884;2023-06-10T00:40:44;14.30;99.90
20041;DHT22;10181;48.072;9.884;2023-06-10T00:43:10;14.20;99.90
20041;DHT22;10181;48.072;9.884;2023-06-10T00:45:36;14.20;99.90
20041;DHT22;10181;48.072;9.884;2023-06-10T00:48:02;14.20;99.90
20041;DHT22;10181;48.072;9.884;2023-06-10T00:50:28;14.20;99.90
20041;DHT22;10181;48.072;9.884;2023-06-10T00:52:55;14.20;99.90
20041;DHT22;10181;48.072;9.884;2023-06-10T00:55:21;14.20;99.90
20041;DHT22;10181;48.072;9.884;2023-06-10T00:57:47;14.20;99.90
20041;DHT22;10181;48.072;9.884;2023-06-10T01:00:14;14.10;99.90
20041;DHT22;10181;48.072;9.884;2023-06-10T01:02:40;14.10;99.90
20041;DHT22;10181;48.072;9.884;2023-06-10T01:05:06;14.10;99.90
20041;DHT22;10181;48.072;9.884;2023-06-10T01:08:01;14.10;99.90
20041;DHT22;10181;48.072;9.884;2023-06-10T01:13:03;14.00;99.90
20041;DHT22;10181;48.072;9.884;2023-06-10T01:15:33;14.00;99.90
20041;DHT22;10181;48.072;9.884;2023-06-10T01:20:30;13.90;99.90
20041;DHT22;10181;48.072;9.884;2023-06-10T01:22:58;13.90;99.90
20041;DHT22;10181;48.072;9.884;2023-06-10T01:25:26;13.90;99.90
20041;DHT22;10181;48.072;9.884;2023-06-10T01:28:13;13.80;99.90
20041;DHT22;10181;48.072;9.884;2023-06-10T01:30:50;13.80;99.90
20041;DHT22;10181;48.072;9.884;2023-06-10T01:33:25;13.80;99.90
20041;DHT22;10181;48.072;9.884;2023-06-10T01:35:53;13.80;99.90
20041;DHT22;10181;48.072;9.884;2023-06-10T01:38:19;13.80;99.90
20041;DHT22;10181;48.072;9.884;2023-06-10T01:40:47;13.90;99.90
20041;DHT22;10181;48.072;9.884;2023-06-10T01:43:13;13.90;99.90
20041;DHT22;10181;48.072;9.884;2023-06-10T01:45:39;13.90;99.90
20041;DHT22;10181;48.072;9.884;2023-06-10T01:48:05;13.80;99.90
20041;DHT22;10181;48.072;9.884;2023-06-10T01:50:30;13.80;99.90
20041;DHT22;10181;48.072;9.884;2023-06-10T01:52:59;13.80;99.90
20041;DHT22;10181;48.072;9.884;2023-06-10T01:55:25;13.80;99.90
20041;DHT22;10181;48.072;9.884;2023-06-10T01:57:51;13.70;99.90
20041;DHT22;10181;48.072;9.884;2023-06-10T02:00:17;13.70;99.90
20041;DHT22;10181;48.072;9.884;2023-06-10T02:02:43;13.70;99.90
20041;DHT22;10181;48.072;9.884;2023-06-10T02:05:08;13.60;99.90
20041;DHT22;10181;48.072;9.884;2023-06-10T02:07:34;13.60;99.90
20041;DHT22;10181;48.072;9.884;2023-06-10T02:10:00;13.60;99.90
20041;DHT22;10181;48.072;9.884;2023-06-10T02:12:25;13.60;99.90
20041;DHT22;10181;48.072;9.884;2023-06-10T02:14:51;13.60;99.90
20041;DHT22;10181;48.072;9.884;2023-06-10T02:17:16;13.50;99.90
20041;DHT22;10181;48.072;9.884;2023-06-10T02:19:42;13.50;99.90
20041;DHT22;10181;48.072;9.884;2023-06-10T02:22:08;13.50;99.90
20041;DHT22;10181;48.072;9.884;2023-06-10T02:24:36;13.50;99.90
20041;DHT22;10181;48.072;9.884;2023-06-10T02:27:03;13.50;99.90
20041;DHT22;10181;48.072;9.884;2023-06-10T02:29:29;13.50;99.90
20041;DHT22;10181;48.072;9.884;2023-06-10T02:31:54;13.40;99.90
20041;DHT22;10181;48.072;9.884;2023-06-10T02:34:20;13.40;99.90
20041;DHT22;10181;48.072;9.884;2023-06-10T02:36:46;13.30;99.90
20041;DHT22;10181;48.072;9.884;2023-06-10T02:39:14;13.30;99.90
20041;DHT22;10181;48.072;9.884;2023-06-10T02:41:40;13.20;99.90
20041;DHT22;10181;48.072;9.884;2023-06-10T02:44:05;13.20;99.90
20041;DHT22;10181;48.072;9.884;2023-06-10T02:46:31;13.20;99.90
20041;DHT22;10181;48.072;9.884;2023-06-10T02:48:57;13.20;99.90
20041;DHT22;10181;48.072;9.884;2023-06-10T02:51:23;13.10;99.90
20041;DHT22;10181;48.072;9.884;2023-06-10T02:53:48;13.10;99.90
20041;DHT22;10181;48.072;9.884;2023-06-10T02:56:16;13.10;99.90
20041;DHT22;10181;48.072;9.884;2023-06-10T02:58:42;13.00;99.90
20041;DHT22;10181;48.072;9.884;2023-06-10T03:01:08;13.00;99.90
20041;DHT22;10181;48.072;9.884;2023-06-10T03:03:35;13.00;99.90
20041;DHT22;10181;48.072;9.884;2023-06-10T03:06:02;13.00;99.90
20041;DHT22;10181;48.072;9.884;2023-06-10T03:08:28;13.00;99.90
20041;DHT22;10181;48.072;9.884;2023-06-10T03:10:54;12.90;99.90
20041;DHT22;10181;48.072;9.884;2023-06-10T03:13:19;12.90;99.90
20041;DHT22;10181;48.072;9.884;2023-06-10T03:15:46;12.80;99.90
20041;DHT22;10181;48.072;9.884;2023-06-10T03:18:12;12.80;99.90
20041;DHT22;10181;48.072;9.884;2023-06-10T03:20:37;12.80;99.90
20041;DHT22;10181;48.072;9.884;2023-06-10T03:23:05;12.70;99.90
20041;DHT22;10181;48.072;9.884;2023-06-10T03:25:33;12.50;99.90
20041;DHT22;10181;48.072;9.884;2023-06-10T03:27:59;12.30;99.90
20041;DHT22;10181;48.072;9.884;2023-06-10T03:30:25;12.00;99.90
20041;DHT22;10181;48.072;9.884;2023-06-10T03:32:50;11.80;99.90
20041;DHT22;10181;48.072;9.884;2023-06-10T03:35:16;11.50;99.90
20041;DHT22;10181;48.072;9.884;2023-06-10T03:37:42;11.40;99.90
20041;DHT22;10181;48.072;9.884;2023-06-10T03:40:08;11.30;99.90
20041;DHT22;10181;48.072;9.884;2023-06-10T03:42:37;11.30;99.90
20041;DHT22;10181;48.072;9.884;2023-06-10T03:45:03;11.30;99.90
20041;DHT22;10181;48.072;9.884;2023-06-10T03:47:36;11.30;99.90
20041;DHT22;10181;48.072;9.884;2023-06-10T03:50:04;11.30;99.90
20041;DHT22;10181;48.072;9.884;2023-06-10T03:52:30;11.20;99.90
20041;DHT22;10181;48.072;9.884;2023-06-10T03:54:56;11.20;99.90
20041;DHT22;10181;48.072;9.884;2023-06-10T03:57:21;11.10;99.90
20041;DHT22;10181;48.072;9.884;2023-06-10T03:59:47;11.10;99.90
20041;DHT22;10181;48.072;9.884;2023-06-10T04:02:13;11.20;99.90
20041;DHT22;10181;48.072;9.884;2023-06-10T04:04:38;11.30;99.90
20041;DHT22;10181;48.072;9.884;2023-06-10T04:07:04;11.30;99.90
20041;DHT22;10181;48.072;9.884;2023-06-10T04:09:31;11.50;99.90
20041;DHT22;10181;48.072;9.884;2023-06-10T04:11:57;11.60;99.90
20041;DHT22;10181;48.072;9.884;2023-06-10T04:14:23;11.70;99.90
20041;DHT22;10181;48.072;9.884;2023-06-10T04:16:49;11.80;99.90
20041;DHT22;10181;48.072;9.884;2023-06-10T04:19:15;12.00;99.90
20041;DHT22;10181;48.072;9.884;2023-06-10T04:21:42;12.10;99.90
20041;DHT22;10181;48.072;9.884;2023-06-10T04:24:07;12.20;99.90
20041;DHT22;10181;48.072;9.884;2023-06-10T04:26:35;12.30;99.90
20041;DHT22;10181;48.072;9.884;2023-06-10T04:29:01;12.50;99.90
20041;DHT22;10181;48.072;9.884;2023-06-10T04:31:26;12.60;99.90
20041;DHT22;10181;48.072;9.884;2023-06-10T04:33:53;12.70;99.90
20041;DHT22;10181;48.072;9.884;2023-06-10T04:36:19;12.80;99.90
20041;DHT22;10181;48.072;9.884;2023-06-10T04:38:44;12.90;99.90
20041;DHT22;10181;48.072;9.884;2023-06-10T04:41:10;13.00;99.90
20041;DHT22;10181;48.072;9.884;2023-06-10T04:43:35;13.10;99.90
20041;DHT22;10181;48.072;9.884;2023-06-10T04:46:02;13.30;99.90
20041;DHT22;10181;48.072;9.884;2023-06-10T04:48:27;13.40;99.90
20041;DHT22;10181;48.072;9.884;2023-06-10T04:50:53;13.50;99.90
20041;DHT22;10181;48.072;9.884;2023-06-10T04:53:19;13.60;99.90
20041;DHT22;10181;48.072;9.884;2023-06-10T04:55:46;13.70;99.90
20041;DHT22;10181;48.072;9.884;2023-06-10T04:58:12;13.80;99.90
20041;DHT22;10181;48.072;9.884;2023-06-10T05:00:37;14.00;99.90
20041;DHT22;10181;48.072;9.884;2023-06-10T05:03:03;14.10;99.90
20041;DHT22;10181;48.072;9.884;2023-06-10T05:05:29;14.20;99.90
20041;DHT22;10181;48.072;9.884;2023-06-10T05:07:54;14.40;99.90
20041;DHT22;10181;48.072;9.884;2023-06-10T05:10:20;14.50;99.90
20041;DHT22;10181;48.072;9.884;2023-06-10T05:12:46;14.60;99.90
20041;DHT22;10181;48.072;9.884;2023-06-10T05:15:11;14.70;99.90
20041;DHT22;10181;48.072;9.884;2023-06-10T05:17:37;14.80;99.90
20041;DHT22;10181;48.072;9.884;2023-06-10T05:20:03;14.90;99.90
20041;DHT22;10181;48.072;9.884;2023-06-10T05:22:29;15.00;99.90
20041;DHT22;10181;48.072;9.884;2023-06-10T05:24:55;15.10;99.90
20041;DHT22;10181;48.072;9.884;2023-06-10T05:27:23;15.10;99.90
20041;DHT22;10181;48.072;9.884;2023-06-10T05:29:53;15.20;99.90
20041;DHT22;10181;48.072;9.884;2023-06-10T05:32:18;15.30;99.90
20041;DHT22;10181;48.072;9.884;2023-06-10T05:34:44;15.40;99.90
20041;DHT22;10181;48.072;9.884;2023-06-10T05:37:10;15.50;99.90
20041;DHT22;10181;48.072;9.884;2023-06-10T05:39:36;15.50;99.90
20041;DHT22;10181;48.072;9.884;2023-06-10T05:42:08;15.60;99.90
20041;DHT22;10181;48.072;9.884;2023-06-10T05:44:34;15.70;99.90
20041;DHT22;10181;48.072;9.884;2023-06-10T05:47:00;15.70;99.90
20041;DHT22;10181;48.072;9.884;2023-06-10T05:49:26;15.80;99.90
20041;DHT22;10181;48.072;9.884;2023-06-10T05:51:52;15.90;99.90
20041;DHT22;10181;48.072;9.884;2023-06-10T05:54:18;15.90;99.90
20041;DHT22;10181;48.072;9.884;2023-06-10T05:56:44;16.00;99.90
20041;DHT22;10181;48.072;9.884;2023-06-10T05:59:10;16.10;99.90
20041;DHT22;10181;48.072;9.884;2023-06-10T06:01:35;16.10;99.90
20041;DHT22;10181;48.072;9.884;2023-06-10T06:04:01;16.20;99.90
20041;DHT22;10181;48.072;9.884;2023-06-10T06:06:26;16.30;99.90
20041;DHT22;10181;48.072;9.884;2023-06-10T06:08:52;16.40;99.90
20041;DHT22;10181;48.072;9.884;2023-06-10T06:11:18;16.50;99.90
20041;DHT22;10181;48.072;9.884;2023-06-10T06:13:43;16.60;99.90
20041;DHT22;10181;48.072;9.884;2023-06-10T06:16:09;16.60;99.90
20041;DHT22;10181;48.072;9.884;2023-06-10T06:18:35;16.60;99.90
20041;DHT22;10181;48.072;9.884;2023-06-10T06:21:00;16.80;99.90
20041;DHT22;10181;48.072;9.884;2023-06-10T06:23:26;16.90;99.90
20041;DHT22;10181;48.072;9.884;2023-06-10T06:25:52;17.00;99.90
20041;DHT22;10181;48.072;9.884;2023-06-10T06:28:17;17.20;99.90
20041;DHT22;10181;48.072;9.884;2023-06-10T06:30:44;17.30;99.90
20041;DHT22;10181;48.072;9.884;2023-06-10T06:33:10;17.30;99.90
20041;DHT22;10181;48.072;9.884;2023-06-10T06:35:36;17.40;99.90
20041;DHT22;10181;48.072;9.884;2023-06-10T06:38:03;17.40;99.90
20041;DHT22;10181;48.072;9.884;2023-06-10T06:40:29;17.50;99.90
20041;DHT22;10181;48.072;9.884;2023-06-10T06:42:55;17.60;99.90
20041;DHT22;10181;48.072;9.884;2023-06-10T06:45:21;17.70;99.90
20041;DHT22;10181;48.072;9.884;2023-06-10T06:47:46;17.80;99.90
20041;DHT22;10181;48.072;9.884;2023-06-10T06:50:12;17.80;99.90
20041;DHT22;10181;48.072;9.884;2023-06-10T06:52:37;17.90;99.90
20041;DHT22;10181;48.072;9.884;2023-06-10T06:55:03;18.00;99.90
20041;DHT22;10181;48.072;9.884;2023-06-10T06:57:29;18.10;99.90
20041;DHT22;10181;48.072;9.884;2023-06-10T06:59:55;18.20;99.90
20041;DHT22;10181;48.072;9.884;2023-06-10T07:02:20;18.30;99.90
20041;DHT22;10181;48.072;9.884;2023-06-10T07:04:46;18.40;99.90
20041;DHT22;10181;48.072;9.884;2023-06-10T07:07:14;18.40;99.90
20041;DHT22;10181;48.072;9.884;2023-06-10T07:09:39;18.50;99.90
20041;DHT22;10181;48.072;9.884;2023-06-10T07:12:05;18.60;99.90
20041;DHT22;10181;48.072;9.884;2023-06-10T07:14:31;18.70;99.90
20041;DHT22;10181;48.072;9.884;2023-06-10T07:16:57;18.80;99.90
20041;DHT22;10181;48.072;9.884;2023-06-10T07:19:22;18.90;99.90
20041;DHT22;10181;48.072;9.884;2023-06-10T07:21:48;19.00;99.90
20041;DHT22;10181;48.072;9.884;2023-06-10T07:24:13;19.10;99.90
20041;DHT22;10181;48.072;9.884;2023-06-10T07:26:39;19.10;99.90
20041;DHT22;10181;48.072;9.884;2023-06-10T07:29:05;19.10;99.90
20041;DHT22;10181;48.072;9.884;2023-06-10T07:31:30;19.20;99.90
20041;DHT22;10181;48.072;9.884;2023-06-10T07:33:56;19.30;99.90
20041;DHT22;10181;48.072;9.884;2023-06-10T07:36:21;19.30;99.90
20041;DHT22;10181;48.072;9.884;2023-06-10T07:38:48;19.40;99.90
20041;DHT22;10181;48.072;9.884;2023-06-10T07:41:13;19.50;99.90
20041;DHT22;10181;48.072;9.884;2023-06-10T07:43:39;19.60;99.90
20041;DHT22;10181;48.072;9.884;2023-06-10T07:46:05;19.60;99.90
20041;DHT22;10181;48.072;9.884;2023-06-10T07:48:31;19.80;99.90
20041;DHT22;10181;48.072;9.884;2023-06-10T07:50:57;19.80;99.90
20041;DHT22;10181;48.072;9.884;2023-06-10T07:53:22;19.80;99.90
20041;DHT22;10181;48.072;9.884;2023-06-10T07:55:48;19.90;99.90
20041;DHT22;10181;48.072;9.884;2023-06-10T07:58:13;20.00;99.90
20041;DHT22;10181;48.072;9.884;2023-06-10T08:00:39;20.10;99.90
20041;DHT22;10181;48.072;9.884;2023-06-10T08:03:05;20.20;99.90
20041;DHT22;10181;48.072;9.884;2023-06-10T08:05:30;20.20;99.90
20041;DHT22;10181;48.072;9.884;2023-06-10T08:07:56;20.30;99.90
20041;DHT22;10181;48.072;9.884;2023-06-10T08:10:22;20.30;99.90
20041;DHT22;10181;48.072;9.884;2023-06-10T08:12:48;20.30;99.90
20041;DHT22;10181;48.072;9.884;2023-06-10T08:15:13;20.30;99.90
20041;DHT22;10181;48.072;9.884;2023-06-10T08:17:39;20.50;99.90
20041;DHT22;10181;48.072;9.884;2023-06-10T08:20:06;20.50;99.90
20041;DHT22;10181;48.072;9.884;2023-06-10T08:22:32;20.60;99.90
20041;DHT22;10181;48.072;9.884;2023-06-10T08:24:58;20.60;99.90
20041;DHT22;10181;48.072;9.884;2023-06-10T08:27:24;20.60;99.90
20041;DHT22;10181;48.072;9.884;2023-06-10T08:29:50;20.70;99.90
20041;DHT22;10181;48.072;9.884;2023-06-10T08:32:16;20.70;99.90
20041;DHT22;10181;48.072;9.884;2023-06-10T08:34:41;20.70;99.90
20041;DHT22;10181;48.072;9.884;2023-06-10T08:37:07;20.80;99.90
20041;DHT22;10181;48.072;9.884;2023-06-10T08:39:33;20.80;99.90
20041;DHT22;10181;48.072;9.884;2023-06-10T08:42:24;20.90;99.90
20041;DHT22;10181;48.072;9.884;2023-06-10T08:44:54;20.90;99.90
20041;DHT22;10181;48.072;9.884;2023-06-10T08:47:24;21.00;99.90
20041;DHT22;10181;48.072;9.884;2023-06-10T08:49:51;21.00;99.90
20041;DHT22;10181;48.072;9.884;2023-06-10T08:52:20;21.00;99.90
20041;DHT22;10181;48.072;9.884;2023-06-10T08:54:52;21.00;99.90
20041;DHT22;10181;48.072;9.884;2023-06-10T08:57:18;21.30;99.90
20041;DHT22;10181;48.072;9.884;2023-06-10T08:59:46;21.40;99.90
20041;DHT22;10181;48.072;9.884;2023-06-10T09:02:14;21.40;99.90
20041;DHT22;10181;48.072;9.884;2023-06-10T09:04:44;21.40;99.90
20041;DHT22;10181;48.072;9.884;2023-06-10T09:07:10;21.50;99.90
20041;DHT22;10181;48.072;9.884;2023-06-10T09:09:36;21.40;99.90
20041;DHT22;10181;48.072;9.884;2023-06-10T09:12:03;21.40;99.90
20041;DHT22;10181;48.072;9.884;2023-06-10T09:14:29;21.50;99.90
20041;DHT22;10181;48.072;9.884;2023-06-10T09:16:55;21.60;99.90
20041;DHT22;10181;48.072;9.884;2023-06-10T09:19:25;21.60;99.90
20041;DHT22;10181;48.072;9.884;2023-06-10T09:21:52;21.60;99.90
20041;DHT22;10181;48.072;9.884;2023-06-10T09:24:18;21.70;99.90
20041;DHT22;10181;48.072;9.884;2023-06-10T09:26:44;21.80;99.90
20041;DHT22;10181;48.072;9.884;2023-06-10T09:29:11;21.80;99.90
20041;DHT22;10181;48.072;9.884;2023-06-10T09:31:38;21.80;99.90
20041;DHT22;10181;48.072;9.884;2023-06-10T09:34:11;21.90;99.90
20041;DHT22;10181;48.072;9.884;2023-06-10T09:36:38;21.90;99.90
20041;DHT22;10181;48.072;9.884;2023-06-10T09:39:05;22.00;99.90
20041;DHT22;10181;48.072;9.884;2023-06-10T09:41:40;22.10;99.90
20041;DHT22;10181;48.072;9.884;2023-06-10T09:44:13;22.20;99.90
20041;DHT22;10181;48.072;9.884;2023-06-10T09:46:40;22.30;99.90
20041;DHT22;10181;48.072;9.884;2023-06-10T09:49:06;22.30;99.90
20041;DHT22;10181;48.072;9.884;2023-06-10T09:51:32;22.40;99.90
20041;DHT22;10181;48.072;9.884;2023-06-10T09:53:58;22.50;99.90
20041;DHT22;10181;48.072;9.884;2023-06-10T09:56:37;22.60;99.90
20041;DHT22;10181;48.072;9.884;2023-06-10T09:59:03;22.70;99.90
20041;DHT22;10181;48.072;9.884;2023-06-10T10:01:31;22.80;99.90
20041;DHT22;10181;48.072;9.884;2023-06-10T10:03:59;22.90;99.90
20041;DHT22;10181;48.072;9.884;2023-06-10T10:06:25;22.90;99.90
20041;DHT22;10181;48.072;9.884;2023-06-10T10:08:51;22.90;99.90
20041;DHT22;10181;48.072;9.884;2023-06-10T10:11:18;23.00;99.90
20041;DHT22;10181;48.072;9.884;2023-06-10T10:13:45;23.00;99.90
20041;DHT22;10181;48.072;9.884;2023-06-10T10:16:23;22.90;99.90
20041;DHT22;10181;48.072;9.884;2023-06-10T10:18:55;22.90;99.90
20041;DHT22;10181;48.072;9.884;2023-06-10T10:21:27;23.00;99.90
20041;DHT22;10181;48.072;9.884;2023-06-10T10:24:03;23.00;99.90
20041;DHT22;10181;48.072;9.884;2023-06-10T10:26:32;22.90;99.90
20041;DHT22;10181;48.072;9.884;2023-06-10T10:29:05;23.00;99.90
20041;DHT22;10181;48.072;9.884;2023-06-10T10:31:34;22.90;99.90
20041;DHT22;10181;48.072;9.884;2023-06-10T10:34:10;22.80;99.90
20041;DHT22;10181;48.072;9.884;2023-06-10T10:36:38;22.70;99.90
20041;DHT22;10181;48.072;9.884;2023-06-10T10:39:04;22.70;99.90
20041;DHT22;10181;48.072;9.884;2023-06-10T10:41:31;22.80;99.90
20041;DHT22;10181;48.072;9.884;2023-06-10T10:43:57;22.90;99.90
20041;DHT22;10181;48.072;9.884;2023-06-10T10:46:23;23.10;99.90
20041;DHT22;10181;48.072;9.884;2023-06-10T10:48:53;23.20;99.90
20041;DHT22;10181;48.072;9.884;2023-06-10T10:51:19;23.10;99.90
20041;DHT22;10181;48.072;9.884;2023-06-10T10:54:14;22.90;99.90
20041;DHT22;10181;48.072;9.884;2023-06-10T10:57:09;22.80;99.90
20041;DHT22;10181;48.072;9.884;2023-06-10T10:59:25;22.70;99.90
20041;DHT22;10181;48.072;9.884;2023-06-10T11:02:07;22.70;99.90
20041;DHT22;10181;48.072;9.884;2023-06-10T11:04:33;22.70;99.90
20041;DHT22;10181;48.072;9.884;2023-06-10T11:07:06;22.60;99.90
20041;DHT22;10181;48.072;9.884;2023-06-10T11:09:32;22.70;99.90
20041;DHT22;10181;48.072;9.884;2023-06-10T11:11:58;22.60;99.90
20041;DHT22;10181;48.072;9.884;2023-06-10T11:14:30;22.50;99.90
20041;DHT22;10181;48.072;9.884;2023-06-10T11:16:59;22.60;99.90
20041;DHT22;10181;48.072;9.884;2023-06-10T11:19:34;22.70;99.90
20041;DHT22;10181;48.072;9.884;2023-06-10T11:22:02;23.00;99.90
20041;DHT22;10181;48.072;9.884;2023-06-10T11:24:29;23.20;99.90
20041;DHT22;10181;48.072;9.884;2023-06-10T11:27:15;23.30;99.90
20041;DHT22;10181;48.072;9.884;2023-06-10T11:29:55;23.40;99.90
20041;DHT22;10181;48.072;9.884;2023-06-10T11:32:22;23.40;99.90
20041;DHT22;10181;48.072;9.884;2023-06-10T11:34:54;23.60;99.90
20041;DHT22;10181;48.072;9.884;2023-06-10T11:37:21;23.60;99.90
20041;DHT22;10181;48.072;9.884;2023-06-10T11:39:51;23.60;99.90
20041;DHT22;10181;48.072;9.884;2023-06-10T11:42:17;23.50;99.90
20041;DHT22;10181;48.072;9.884;2023-06-10T11:44:49;23.40;99.90
20041;DHT22;10181;48.072;9.884;2023-06-10T11:47:15;23.20;99.90
20041;DHT22;10181;48.072;9.884;2023-06-10T11:49:40;23.20;99.90
20041;DHT22;10181;48.072;9.884;2023-06-10T11:52:06;23.20;99.90
20041;DHT22;10181;48.072;9.884;2023-06-10T11:54:32;23.30;99.90
20041;DHT22;10181;48.072;9.884;2023-06-10T11:56:59;23.40;99.90
20041;DHT22;10181;48.072;9.884;2023-06-10T11:59:29;23.50;99.90
20041;DHT22;10181;48.072;9.884;2023-06-10T12:01:55;23.60;99.90
20041;DHT22;10181;48.072;9.884;2023-06-10T12:04:21;23.60;99.90
20041;DHT22;10181;48.072;9.884;2023-06-10T12:06:52;23.60;99.90
20041;DHT22;10181;48.072;9.884;2023-06-10T12:09:20;23.60;99.90
20041;DHT22;10181;48.072;9.884;2023-06-10T12:11:49;23.50;99.90
20041;DHT22;10181;48.072;9.884;2023-06-10T12:14:15;23.50;99.90
20041;DHT22;10181;48.072;9.884;2023-06-10T12:16:48;23.40;99.90
20041;DHT22;10181;48.072;9.884;2023-06-10T12:19:15;23.30;99.90
20041;DHT22;10181;48.072;9.884;2023-06-10T12:21:40;23.30;99.90
20041;DHT22;10181;48.072;9.884;2023-06-10T12:24:09;23.30;99.90
20041;DHT22;10181;48.072;9.884;2023-06-10T12:26:41;23.40;99.90
20041;DHT22;10181;48.072;9.884;2023-06-10T12:29:20;23.40;99.90
20041;DHT22;10181;48.072;9.884;2023-06-10T12:31:58;23.50;99.90
20041;DHT22;10181;48.072;9.884;2023-06-10T12:34:35;23.60;99.90
20041;DHT22;10181;48.072;9.884;2023-06-10T12:37:03;23.80;99.90
20041;DHT22;10181;48.072;9.884;2023-06-10T12:39:32;23.90;99.90
20041;DHT22;10181;48.072;9.884;2023-06-10T12:41:59;23.80;99.90
20041;DHT22;10181;48.072;9.884;2023-06-10T12:44:32;23.80;99.90
20041;DHT22;10181;48.072;9.884;2023-06-10T12:47:00;23.80;99.90
20041;DHT22;10181;48.072;9.884;2023-06-10T12:49:26;23.70;99.90
20041;DHT22;10181;48.072;9.884;2023-06-10T12:51:52;23.70;99.90
20041;DHT22;10181;48.072;9.884;2023-06-10T12:54:18;23.80;99.90
20041;DHT22;10181;48.072;9.884;2023-06-10T12:56:44;24.00;99.90
20041;DHT22;10181;48.072;9.884;2023-06-10T12:59:10;24.10;99.90
20041;DHT22;10181;48.072;9.884;2023-06-10T13:01:37;24.20;99.90
20041;DHT22;10181;48.072;9.884;2023-06-10T13:04:05;24.20;99.90
20041;DHT22;10181;48.072;9.884;2023-06-10T13:06:32;24.10;99.90
20041;DHT22;10181;48.072;9.884;2023-06-10T13:09:01;24.10;99.90
20041;DHT22;10181;48.072;9.884;2023-06-10T13:11:28;24.10;99.90
20041;DHT22;10181;48.072;9.884;2023-06-10T13:13:53;24.20;99.90
20041;DHT22;10181;48.072;9.884;2023-06-10T13:16:19;24.20;99.90
20041;DHT22;10181;48.072;9.884;2023-06-10T13:18:45;24.30;99.90
20041;DHT22;10181;48.072;9.884;2023-06-10T13:21:11;24.40;99.90
20041;DHT22;10181;48.072;9.884;2023-06-10T13:23:37;24.30;99.90
20041;DHT22;10181;48.072;9.884;2023-06-10T13:26:02;24.40;99.90
20041;DHT22;10181;48.072;9.884;2023-06-10T13:28:28;24.40;99.90
20041;DHT22;10181;48.072;9.884;2023-06-10T13:30:54;24.40;99.90
20041;DHT22;10181;48.072;9.884;2023-06-10T13:33:19;24.40;99.90
20041;DHT22;10181;48.072;9.884;2023-06-10T13:35:46;24.40;99.90
20041;DHT22;10181;48.072;9.884;2023-06-10T13:38:12;24.40;99.90
20041;DHT22;10181;48.072;9.884;2023-06-10T13:40:37;24.50;99.90
20041;DHT22;10181;48.072;9.884;2023-06-10T13:43:03;24.50;99.90
20041;DHT22;10181;48.072;9.884;2023-06-10T13:45:29;24.50;99.90
20041;DHT22;10181;48.072;9.884;2023-06-10T13:47:54;24.60;99.90
20041;DHT22;10181;48.072;9.884;2023-06-10T13:50:20;24.50;99.90
20041;DHT22;10181;48.072;9.884;2023-06-10T13:52:45;24.30;99.90
20041;DHT22;10181;48.072;9.884;2023-06-10T13:55:11;24.10;99.90
20041;DHT22;10181;48.072;9.884;2023-06-10T13:57:36;24.00;99.90
20041;DHT22;10181;48.072;9.884;2023-06-10T14:00:02;24.00;99.90
20041;DHT22;10181;48.072;9.884;2023-06-10T14:02:28;24.00;99.90
20041;DHT22;10181;48.072;9.884;2023-06-10T14:04:54;24.10;99.40
20041;DHT22;10181;48.072;9.884;2023-06-10T14:07:19;24.20;98.80
20041;DHT22;10181;48.072;9.884;2023-06-10T14:09:45;24.40;97.50
20041;DHT22;10181;48.072;9.884;2023-06-10T14:12:11;24.40;99.90
20041;DHT22;10181;48.072;9.884;2023-06-10T14:14:36;24.50;97.20
20041;DHT22;10181;48.072;9.884;2023-06-10T14:17:02;24.50;99.90
20041;DHT22;10181;48.072;9.884;2023-06-10T14:19:30;24.50;99.10
20041;DHT22;10181;48.072;9.884;2023-06-10T14:21:55;24.40;99.90
20041;DHT22;10181;48.072;9.884;2023-06-10T14:24:21;24.30;99.90
20041;DHT22;10181;48.072;9.884;2023-06-10T14:26:47;24.30;97.90
20041;DHT22;10181;48.072;9.884;2023-06-10T14:29:13;24.30;99.90
20041;DHT22;10181;48.072;9.884;2023-06-10T14:31:42;24.50;98.50
20041;DHT22;10181;48.072;9.884;2023-06-10T14:34:08;24.50;97.40
20041;DHT22;10181;48.072;9.884;2023-06-10T14:36:34;24.60;99.00
20041;DHT22;10181;48.072;9.884;2023-06-10T14:39:00;24.50;97.60
20041;DHT22;10181;48.072;9.884;2023-06-10T14:41:26;24.50;95.40
20041;DHT22;10181;48.072;9.884;2023-06-10T14:43:52;24.50;96.40
20041;DHT22;10181;48.072;9.884;2023-06-10T14:46:18;24.60;95.30
20041;DHT22;10181;48.072;9.884;2023-06-10T14:48:46;24.70;96.80
20041;DHT22;10181;48.072;9.884;2023-06-10T14:51:12;24.70;97.60
20041;DHT22;10181;48.072;9.884;2023-06-10T14:53:37;24.70;96.20
20041;DHT22;10181;48.072;9.884;2023-06-10T14:56:03;24.70;97.90
20041;DHT22;10181;48.072;9.884;2023-06-10T14:58:29;24.80;98.40
20041;DHT22;10181;48.072;9.884;2023-06-10T15:00:55;24.80;96.90
20041;DHT22;10181;48.072;9.884;2023-06-10T15:03:20;24.90;97.70
20041;DHT22;10181;48.072;9.884;2023-06-10T15:05:46;25.00;99.00
20041;DHT22;10181;48.072;9.884;2023-06-10T15:08:12;25.10;98.40
20041;DHT22;10181;48.072;9.884;2023-06-10T15:10:37;25.10;98.60
20041;DHT22;10181;48.072;9.884;2023-06-10T15:13:03;25.00;98.70
20041;DHT22;10181;48.072;9.884;2023-06-10T15:15:28;24.80;99.20
20041;DHT22;10181;48.072;9.884;2023-06-10T15:17:54;24.60;98.90
20041;DHT22;10181;48.072;9.884;2023-06-10T15:20:20;24.50;98.40
20041;DHT22;10181;48.072;9.884;2023-06-10T15:22:46;24.50;98.30
20041;DHT22;10181;48.072;9.884;2023-06-10T15:25:12;24.50;98.20
20041;DHT22;10181;48.072;9.884;2023-06-10T15:27:37;24.50;97.60
20041;DHT22;10181;48.072;9.884;2023-06-10T15:30:03;24.60;98.30
20041;DHT22;10181;48.072;9.884;2023-06-10T15:32:29;24.60;98.00
20041;DHT22;10181;48.072;9.884;2023-06-10T15:34:55;24.70;98.10